Fort Ogden, Florida
Current Conditions -  °F | °C
As of 9:53 AM on Thursday 23 Oct 2014 (Local Time) from KPGD Reporting Station
Clear Clear  
Wind Chill: 74°   Ceiling: Unl
Heat Index: 74°   Visibility: 10mi
Dew Point: 62°   Wind: 16mph
Humidity: 66%   Direction: 60°ENE
Pressure: 29.98"   Gusts: NA
Location:  27.09°N, 81.95°W
Report Text: KPGD 231353Z 06014KT 10SM CLR 23/17 A2998 RMK AO2 SLP153 T02330167
Loading
Personal Weather Stations






























Interactive Weather Map
Tropical Storm Tracking
New forecast layout! Learn more

10-Day Weather Forecast

Advertisements
Track Severe Weather on mobile